Time;durP1;ratioP1;P1;durP2;ratioP2;P2;SDS_P1;SDS_P2;PMS_P1;PMS_P2;Temp;Humidity;BMP_temperature;BMP_pressure;BME280_temperature;BME280_humidity;BME280_pressure;Samples;Min_cycle;Max_cycle;Signal;HPM_P1;HPM_P2
2021/07/20 00:00:19;;;;;;;6.53;4.60;;;17.30;75.70;;;;;;5083617;28;20032;-71
2021/07/20 00:02:55;;;;;;;7.93;5.20;;;17.20;75.70;;;;;;5071899;28;20111;-71
2021/07/20 00:05:23;;;;;;;7.43;5.05;;;17.20;76.00;;;;;;5072922;28;20485;-71
2021/07/20 00:07:57;;;;;;;9.57;5.28;;;17.10;76.10;;;;;;5070853;28;20116;-71
2021/07/20 00:10:47;;;;;;;7.95;5.43;;;17.10;76.30;;;;;;5073559;28;20028;-71
2021/07/20 00:13:13;;;;;;;8.57;5.20;;;17.00;76.40;;;;;;5074017;28;20028;-71
2021/07/20 00:15:40;;;;;;;8.85;5.82;;;17.00;76.80;;;;;;5074456;28;20066;-71
2021/07/20 00:18:09;;;;;;;8.35;6.00;;;16.90;77.00;;;;;;5073538;28;20094;-71
2021/07/20 00:20:35;;;;;;;7.93;5.25;;;16.90;77.20;;;;;;5072980;28;20020;-71
2021/07/20 00:23:01;;;;;;;8.38;4.80;;;16.80;77.30;;;;;;5073026;28;20494;-71
2021/07/20 00:25:27;;;;;;;7.88;4.88;;;16.80;77.50;;;;;;5071907;28;20103;-71
2021/07/20 00:27:53;;;;;;;9.05;5.10;;;16.80;77.60;;;;;;5075536;28;20023;-71
2021/07/20 00:30:18;;;;;;;7.50;4.88;;;16.70;77.70;;;;;;5074057;28;20021;-71
2021/07/20 00:32:44;;;;;;;11.20;5.57;;;16.60;77.90;;;;;;5073007;28;20154;-71
2021/07/20 00:35:11;;;;;;;9.50;5.20;;;16.60;78.20;;;;;;5071745;28;20025;-71
2021/07/20 00:37:37;;;;;;;6.68;4.50;;;16.60;79.00;;;;;;5071479;28;20112;-71
2021/07/20 00:40:09;;;;;;;8.02;5.35;;;16.60;78.60;;;;;;5071431;28;20118;-71
2021/07/20 00:42:35;;;;;;;8.88;5.38;;;16.60;78.60;;;;;;5071653;28;20025;-71
2021/07/20 00:45:04;;;;;;;7.78;5.45;;;16.50;78.70;;;;;;5074038;28;20503;-71
2021/07/20 00:47:29;;;;;;;8.80;5.60;;;16.50;78.70;;;;;;5073551;28;20517;-71
2021/07/20 00:49:55;;;;;;;9.07;5.25;;;16.50;78.70;;;;;;5073749;28;20020;-71
2021/07/20 00:52:20;;;;;;;9.13;5.50;;;16.50;78.90;;;;;;5076001;28;20025;-71
2021/07/20 00:54:46;;;;;;;7.85;4.95;;;16.40;79.10;;;;;;5073253;28;20382;-71
2021/07/20 00:57:12;;;;;;;8.77;5.22;;;16.40;79.50;;;;;;5070708;28;20021;-71
2021/07/20 00:59:38;;;;;;;8.60;5.35;;;16.30;79.80;;;;;;5070233;28;20021;-71
2021/07/20 01:02:05;;;;;;;9.23;5.25;;;16.20;80.10;;;;;;5073614;28;20508;-71
2021/07/20 01:04:31;;;;;;;6.97;5.20;;;16.20;80.30;;;;;;5073970;28;20044;-71
2021/07/20 01:06:59;;;;;;;8.43;5.00;;;16.10;80.30;;;;;;5087376;28;20513;-71
2021/07/20 01:09:26;;;;;;;7.88;4.97;;;16.10;80.60;;;;;;5077794;28;20111;-71
2021/07/20 01:11:53;;;;;;;7.80;4.78;;;16.00;80.80;;;;;;5074990;28;20029;-71
2021/07/20 01:14:20;;;;;;;8.13;4.97;;;16.00;81.00;;;;;;5074446;28;20477;-71
2021/07/20 01:16:46;;;;;;;9.88;5.30;;;16.00;81.20;;;;;;5072953;28;20032;-71
2021/07/20 01:19:14;;;;;;;9.77;5.90;;;15.90;81.30;;;;;;5072416;28;20028;-71
2021/07/20 01:21:41;;;;;;;8.23;5.43;;;15.90;81.50;;;;;;5072183;28;20044;-71
2021/07/20 01:24:08;;;;;;;8.80;5.25;;;15.80;81.50;;;;;;5072471;28;20031;-71
2021/07/20 01:26:34;;;;;;;10.43;5.93;;;15.80;81.70;;;;;;5071401;28;20013;-71
2021/07/20 01:29:03;;;;;;;8.15;5.38;;;15.80;81.70;;;;;;5073715;28;20094;-71
2021/07/20 01:31:30;;;;;;;7.32;4.70;;;15.70;81.80;;;;;;5075394;28;20020;-71
2021/07/20 01:33:59;;;;;;;8.05;5.35;;;15.70;82.00;;;;;;5071431;28;20374;-71
2021/07/20 01:36:25;;;;;;;8.73;5.18;;;15.60;82.10;;;;;;5073721;28;20394;-71
2021/07/20 01:38:52;;;;;;;9.63;5.50;;;15.60;82.20;;;;;;5071684;28;20432;-71
2021/07/20 01:41:19;;;;;;;8.07;5.45;;;15.60;82.40;;;;;;5070507;28;20405;-71
2021/07/20 01:43:49;;;;;;;8.10;4.85;;;15.50;82.50;;;;;;5071663;28;20056;-71
2021/07/20 01:46:15;;;;;;;7.95;4.95;;;15.50;82.70;;;;;;5076748;28;20020;-71
2021/07/20 01:48:45;;;;;;;8.32;5.40;;;15.40;82.90;;;;;;5078119;28;20016;-71
2021/07/20 01:51:11;;;;;;;;;;;15.40;83.20;;;;;;5076599;28;20020;-71
2021/07/20 01:53:37;;;;;;;7.80;4.90;;;15.30;83.00;;;;;;5079198;28;19945;-71
2021/07/20 01:56:05;;;;;;;8.75;4.70;;;15.30;83.40;;;;;;5074155;28;20074;-71
2021/07/20 01:58:31;;;;;;;8.05;5.35;;;15.30;83.50;;;;;;5075371;28;20036;-71
2021/07/20 02:00:57;;;;;;;7.97;5.38;;;15.30;83.60;;;;;;5087433;28;20025;-71
2021/07/20 02:08:56;;;;;;;6.53;4.07;;;15.10;84.40;;;;;;5075197;28;20509;-71
2021/07/20 02:11:29;;;;;;;6.30;4.13;;;15.00;84.70;;;;;;5075617;28;20112;-71
2021/07/20 02:14:01;;;;;;;5.50;3.33;;;15.00;85.00;;;;;;5078272;28;20059;-71
2021/07/20 02:16:29;;;;;;;5.25;3.50;;;14.90;85.10;;;;;;5076551;28;20028;-71
2021/07/20 02:19:01;;;;;;;5.68;3.35;;;14.90;85.40;;;;;;5075548;28;20029;-71
2021/07/20 02:21:28;;;;;;;5.03;3.15;;;14.80;85.70;;;;;;5075091;28;20025;-71
2021/07/20 02:23:54;;;;;;;5.30;3.13;;;14.80;86.00;;;;;;5073428;28;20020;-71
2021/07/20 02:26:25;;;;;;;5.72;3.45;;;14.80;86.10;;;;;;5072779;28;20023;-71
2021/07/20 02:28:52;;;;;;;5.93;3.83;;;14.80;86.10;;;;;;5075859;28;20024;-71
2021/07/20 02:31:21;;;;;;;9.07;4.43;;;14.80;86.10;;;;;;5076502;28;20020;-71
2021/07/20 02:33:47;;;;;;;7.78;4.38;;;14.70;86.00;;;;;;5074868;28;20058;-71
2021/07/20 02:36:14;;;;;;;8.68;5.45;;;14.70;86.20;;;;;;5078725;28;20078;-71
2021/07/20 02:38:41;;;;;;;7.88;4.93;;;14.60;86.30;;;;;;5074059;28;20056;-71
2021/07/20 02:41:10;;;;;;;8.98;5.10;;;14.60;86.40;;;;;;5073833;28;20052;-71
2021/07/20 02:43:37;;;;;;;7.90;5.22;;;14.50;86.50;;;;;;5071888;28;20029;-71
2021/07/20 02:46:05;;;;;;;7.80;4.93;;;14.50;86.60;;;;;;5074457;28;20028;-71
2021/07/20 02:48:31;;;;;;;8.77;5.50;;;14.50;86.70;;;;;;5077252;28;20016;-71
2021/07/20 02:51:00;;;;;;;8.52;4.43;;;14.50;86.80;;;;;;5073414;28;20477;-72
2021/07/20 02:53:27;;;;;;;7.75;4.80;;;14.50;87.00;;;;;;5075166;28;20021;-71
2021/07/20 02:55:54;;;;;;;7.93;4.95;;;14.40;87.10;;;;;;5072590;28;20033;-71
2021/07/20 02:58:20;;;;;;;9.48;5.53;;;14.40;87.20;;;;;;5074375;28;20044;-71
2021/07/20 03:00:46;;;;;;;12.05;6.45;;;14.30;87.40;;;;;;5075032;28;20055;-71
2021/07/20 03:03:11;;;;;;;9.63;5.63;;;14.30;87.60;;;;;;5074502;28;20016;-71
2021/07/20 03:05:39;;;;;;;8.02;5.80;;;14.30;87.60;;;;;;5074953;28;20067;-71
2021/07/20 03:08:07;;;;;;;10.02;5.68;;;14.30;87.70;;;;;;5072450;28;20063;-71
2021/07/20 03:10:35;;;;;;;10.15;5.82;;;14.30;87.80;;;;;;5074069;28;20104;-71
2021/07/20 03:13:10;;;;;;;7.60;5.43;;;14.30;87.90;;;;;;5073412;28;20031;-71
2021/07/20 03:15:38;;;;;;;11.07;5.93;;;14.30;88.10;;;;;;5078215;28;20066;-71
2021/07/20 03:18:05;;;;;;;9.55;5.28;;;14.20;88.20;;;;;;5074250;28;20123;-71
2021/07/20 03:20:31;;;;;;;8.77;5.55;;;14.20;88.40;;;;;;5074071;28;20009;-71
2021/07/20 03:22:58;;;;;;;9.75;5.75;;;14.20;88.60;;;;;;5073224;28;20028;-71
2021/07/20 03:25:25;;;;;;;8.80;5.35;;;14.20;88.70;;;;;;5072096;28;20597;-71
2021/07/20 03:27:52;;;;;;;7.97;5.00;;;14.20;88.80;;;;;;5074305;28;20082;-71
2021/07/20 03:30:18;;;;;;;11.05;5.30;;;14.20;89.00;;;;;;5073998;28;20025;-71
2021/07/20 03:32:45;;;;;;;7.78;4.75;;;14.10;89.00;;;;;;5076353;28;20092;-71
2021/07/20 03:35:13;;;;;;;6.53;4.05;;;14.10;89.20;;;;;;5072884;28;20052;-71
2021/07/20 03:37:39;;;;;;;5.95;3.72;;;14.10;89.50;;;;;;5073879;28;20082;-71
2021/07/20 03:40:06;;;;;;;5.65;3.47;;;14.00;89.70;;;;;;5071919;28;20496;-71
2021/07/20 03:42:32;;;;;;;5.05;3.08;;;14.00;89.90;;;;;;5072947;28;20020;-71
2021/07/20 03:44:58;;;;;;;5.43;3.03;;;14.00;90.00;;;;;;5074159;28;20028;-71
2021/07/20 03:47:24;;;;;;;5.63;3.40;;;13.90;90.10;;;;;;5073742;28;20031;-72
2021/07/20 03:49:52;;;;;;;7.28;4.05;;;13.90;90.20;;;;;;5076334;28;20497;-71
2021/07/20 03:52:18;;;;;;;6.70;4.00;;;13.80;90.30;;;;;;5072767;28;20052;-71
2021/07/20 03:54:44;;;;;;;8.52;4.53;;;13.80;90.30;;;;;;5073027;28;20046;-71
2021/07/20 03:57:13;;;;;;;8.15;4.68;;;13.80;90.40;;;;;;5071858;28;20553;-71
2021/07/20 03:59:39;;;;;;;9.93;5.38;;;13.80;90.50;;;;;;5078866;28;20020;-71
2021/07/20 04:02:08;;;;;;;10.30;5.57;;;13.80;90.80;;;;;;5074839;28;20093;-71
2021/07/20 04:04:36;;;;;;;9.38;5.55;;;13.70;90.60;;;;;;5071886;28;20044;-72
2021/07/20 04:07:05;;;;;;;8.67;4.93;;;13.80;90.60;;;;;;5072416;28;20017;-71
2021/07/20 04:09:31;;;;;;;8.50;5.57;;;13.70;90.60;;;;;;5086767;28;20068;-71
2021/07/20 04:11:57;;;;;;;9.63;4.90;;;13.70;90.60;;;;;;5072064;28;20025;-72
2021/07/20 04:14:24;;;;;;;8.55;5.20;;;13.70;90.60;;;;;;5077880;28;20302;-71
2021/07/20 04:16:50;;;;;;;9.77;5.25;;;13.70;90.70;;;;;;5073944;28;20020;-71
2021/07/20 04:19:16;;;;;;;9.80;5.70;;;13.70;90.70;;;;;;5074775;28;20017;-71
2021/07/20 04:21:43;;;;;;;9.75;5.28;;;13.70;90.80;;;;;;5072951;28;20051;-71
2021/07/20 04:24:13;;;;;;;8.65;5.43;;;13.70;90.90;;;;;;5074891;28;20506;-71
2021/07/20 04:26:43;;;;;;;10.65;5.75;;;13.70;90.90;;;;;;5072227;28;20095;-71
2021/07/20 04:29:10;;;;;;;9.32;5.40;;;13.80;91.00;;;;;;5070317;28;20025;-71
2021/07/20 04:31:39;;;;;;;9.32;5.80;;;13.70;91.30;;;;;;5075020;28;20024;-71
2021/07/20 04:34:05;;;;;;;11.13;6.53;;;13.70;91.10;;;;;;5072507;28;20024;-71
2021/07/20 04:36:31;;;;;;;9.15;5.40;;;13.70;91.20;;;;;;5073204;28;20104;-71
2021/07/20 04:38:56;;;;;;;11.25;6.20;;;13.80;91.30;;;;;;5071508;28;20124;-71
2021/07/20 04:41:22;;;;;;;10.13;5.57;;;13.80;91.30;;;;;;5071705;28;20051;-71
2021/07/20 04:43:48;;;;;;;10.77;6.07;;;13.80;91.40;;;;;;5070573;28;20115;-71
2021/07/20 04:46:16;;;;;;;9.68;5.82;;;13.80;91.40;;;;;;5072482;28;20066;-71
2021/07/20 04:48:42;;;;;;;11.98;6.38;;;13.90;91.40;;;;;;5074022;28;20024;-71
2021/07/20 04:51:08;;;;;;;10.35;6.28;;;13.90;91.50;;;;;;5072271;28;20028;-71
2021/07/20 04:53:39;;;;;;;10.05;6.47;;;13.90;91.50;;;;;;5074772;28;20024;-71
2021/07/20 04:56:05;;;;;;;10.73;6.38;;;13.90;91.60;;;;;;5072808;28;20100;-71
2021/07/20 04:58:30;;;;;;;10.45;6.55;;;13.90;91.60;;;;;;5071407;28;20139;-71
2021/07/20 05:00:56;;;;;;;10.65;5.90;;;13.90;91.60;;;;;;5072981;28;20428;-71
2021/07/20 05:03:25;;;;;;;11.73;6.10;;;13.90;91.70;;;;;;5071710;28;20021;-71
2021/07/20 05:05:56;;;;;;;11.90;6.55;;;14.00;91.80;;;;;;5073433;28;20103;-71
2021/07/20 05:08:22;;;;;;;9.90;6.30;;;14.00;91.80;;;;;;5072019;28;20473;-71
2021/07/20 05:10:49;;;;;;;10.73;6.53;;;14.00;91.90;;;;;;5085955;28;20085;-72
2021/07/20 05:13:19;;;;;;;12.98;7.13;;;14.10;91.90;;;;;;5081980;28;20026;-71
2021/07/20 05:15:56;;;;;;;10.25;6.25;;;14.10;91.90;;;;;;5102847;28;20031;-71
2021/07/20 05:18:22;;;;;;;11.27;6.90;;;14.10;92.00;;;;;;5090815;28;20477;-71
2021/07/20 05:20:50;;;;;;;10.73;6.43;;;14.10;92.10;;;;;;5096023;28;20028;-71
2021/07/20 05:23:17;;;;;;;9.70;5.68;;;14.10;92.10;;;;;;5096072;28;20093;-71
2021/07/20 05:25:54;;;;;;;12.35;6.43;;;14.10;92.10;;;;;;5095990;28;20023;-71
2021/07/20 05:28:20;;;;;;;9.63;6.20;;;14.20;92.20;;;;;;5096306;28;20031;-71
2021/07/20 05:30:48;;;;;;;10.95;6.45;;;14.20;92.30;;;;;;5094766;28;20366;-71
2021/07/20 05:33:18;;;;;;;10.82;6.40;;;14.20;92.30;;;;;;5096495;28;20024;-71
2021/07/20 05:35:44;;;;;;;9.43;5.68;;;14.20;92.60;;;;;;5095914;28;20089;-71
2021/07/20 05:38:10;;;;;;;11.98;6.68;;;14.30;92.40;;;;;;5093802;28;20067;-71
2021/07/20 05:40:35;;;;;;;10.77;6.22;;;14.30;92.40;;;;;;5074821;28;20081;-71
2021/07/20 05:43:02;;;;;;;12.38;6.80;;;14.40;92.40;;;;;;5073893;28;20040;-71
2021/07/20 05:45:29;;;;;;;10.65;6.18;;;14.30;92.40;;;;;;5075287;28;20112;-71
2021/07/20 05:47:55;;;;;;;10.10;5.93;;;14.40;92.50;;;;;;5077880;28;20412;-71
2021/07/20 05:50:22;;;;;;;12.60;7.32;;;14.40;92.50;;;;;;5086386;28;20055;-71
2021/07/20 05:52:50;;;;;;;9.48;6.13;;;14.50;92.60;;;;;;5094084;28;20427;-71
2021/07/20 05:55:18;;;;;;;11.32;6.63;;;14.50;92.70;;;;;;5094302;28;20024;-71
2021/07/20 05:57:46;;;;;;;11.25;6.88;;;14.50;92.80;;;;;;5094267;28;20020;-71
2021/07/20 06:00:13;;;;;;;13.77;6.68;;;14.60;92.80;;;;;;5094339;28;20020;-71
2021/07/20 06:02:40;;;;;;;10.60;6.53;;;14.60;92.90;;;;;;5084132;28;20017;-71
2021/07/20 06:05:13;;;;;;;11.63;6.57;;;14.60;92.90;;;;;;5076758;28;20131;-71
2021/07/20 06:07:39;;;;;;;13.88;8.07;;;14.70;92.90;;;;;;5089907;28;20028;-71
2021/07/20 06:10:05;;;;;;;10.52;6.78;;;14.70;93.00;;;;;;5095171;28;20036;-71
2021/07/20 06:12:32;;;;;;;11.98;6.75;;;14.80;93.00;;;;;;5087158;28;20154;-71
2021/07/20 06:14:59;;;;;;;10.50;6.53;;;14.80;93.00;;;;;;5086807;28;20478;-71
2021/07/20 06:17:25;;;;;;;10.57;6.43;;;14.90;93.00;;;;;;5095184;28;20511;-71
2021/07/20 06:19:55;;;;;;;12.55;7.10;;;14.90;93.00;;;;;;5095026;28;20062;-71
2021/07/20 06:22:27;;;;;;;10.77;6.28;;;15.00;92.90;;;;;;5095102;28;20492;-71
2021/07/20 06:24:55;;;;;;;10.88;5.75;;;15.10;92.90;;;;;;5094945;28;20020;-71
2021/07/20 06:27:21;;;;;;;12.32;7.65;;;15.10;92.90;;;;;;5094989;28;20016;-71
2021/07/20 06:29:53;;;;;;;12.57;7.15;;;15.10;92.90;;;;;;5094892;28;20016;-71
2021/07/20 06:32:21;;;;;;;11.25;6.85;;;15.20;92.80;;;;;;5092851;28;20411;-71
2021/07/20 06:34:47;;;;;;;10.52;7.03;;;15.20;92.70;;;;;;5091811;28;20028;-71
2021/07/20 06:37:14;;;;;;;11.85;6.50;;;15.30;92.70;;;;;;5092966;28;20392;-71
2021/07/20 06:39:42;;;;;;;10.20;6.25;;;15.40;92.60;;;;;;5094028;28;20486;-71
2021/07/20 06:42:08;;;;;;;7.65;5.43;;;15.40;92.60;;;;;;5086744;28;20036;-71
2021/07/20 06:44:35;;;;;;;10.35;5.43;;;15.50;92.50;;;;;;5093384;28;20521;-71
2021/07/20 06:47:02;;;;;;;12.27;6.40;;;15.60;92.40;;;;;;5093202;28;20021;-71
2021/07/20 06:49:28;;;;;;;11.07;6.78;;;15.70;92.30;;;;;;5086829;28;20097;-71
2021/07/20 06:51:54;;;;;;;10.05;6.47;;;15.70;92.20;;;;;;5077210;28;20393;-72
2021/07/20 06:54:20;;;;;;;9.43;5.88;;;15.70;92.10;;;;;;5092938;28;20020;-72
2021/07/20 06:56:52;;;;;;;9.40;6.22;;;15.80;92.00;;;;;;5084704;28;20054;-72
2021/07/20 06:59:20;;;;;;;9.38;5.63;;;15.90;91.80;;;;;;5086163;28;20086;-72
2021/07/20 07:01:46;;;;;;;10.05;6.03;;;15.90;91.70;;;;;;5074356;28;20016;-72
2021/07/20 07:04:31;;;;;;;9.98;6.15;;;16.00;91.50;;;;;;5094294;28;20027;-72
2021/07/20 07:06:58;;;;;;;10.70;6.20;;;16.10;91.30;;;;;;5092799;28;20089;-72
2021/07/20 07:09:32;;;;;;;9.75;6.95;;;16.10;91.20;;;;;;5094023;28;20393;-72
2021/07/20 07:11:59;;;;;;;9.23;5.70;;;16.20;91.00;;;;;;5093943;28;20504;-72
2021/07/20 07:14:27;;;;;;;10.25;5.95;;;16.20;90.90;;;;;;5091266;28;20409;-72
2021/07/20 07:16:53;;;;;;;9.90;5.82;;;16.30;90.80;;;;;;5092466;28;20485;-73
2021/07/20 07:19:20;;;;;;;12.60;6.43;;;16.40;90.60;;;;;;5085288;28;20619;-73
2021/07/20 07:21:49;;;;;;;9.80;6.35;;;16.40;90.40;;;;;;5088519;28;20016;-72
2021/07/20 07:24:16;;;;;;;11.83;7.37;;;16.50;90.30;;;;;;5093292;28;20099;-72
2021/07/20 07:26:44;;;;;;;10.80;7.68;;;16.50;90.20;;;;;;5090087;28;20339;-72
2021/07/20 07:29:11;;;;;;;11.20;7.38;;;16.60;90.10;;;;;;5093180;28;20103;-72
2021/07/20 07:31:37;;;;;;;10.15;7.00;;;16.70;89.80;;;;;;5092411;28;20031;-71
2021/07/20 07:34:03;;;;;;;13.52;7.28;;;16.80;89.30;;;;;;5085661;28;20366;-72
2021/07/20 07:36:31;;;;;;;14.25;7.13;;;16.80;88.90;;;;;;5075937;28;20037;-73
2021/07/20 07:39:02;;;;;;;10.80;7.18;;;16.90;88.90;;;;;;5080949;28;20481;-72
2021/07/20 07:41:29;;;;;;;10.20;6.80;;;17.00;88.40;;;;;;5084956;28;20044;-71
2021/07/20 07:43:55;;;;;;;12.20;6.88;;;17.10;87.90;;;;;;5085573;28;20025;-71
2021/07/20 07:46:23;;;;;;;11.93;6.20;;;17.20;87.40;;;;;;5086682;28;20111;-71
2021/07/20 07:48:48;;;;;;;9.25;6.40;;;17.20;87.10;;;;;;5079000;28;20028;-71
2021/07/20 07:51:14;;;;;;;8.95;6.13;;;17.30;86.70;;;;;;5079432;28;20029;-71
2021/07/20 07:53:40;;;;;;;9.30;6.57;;;17.40;86.30;;;;;;5078066;28;20036;-71
2021/07/20 07:56:06;;;;;;;10.20;6.53;;;17.40;85.90;;;;;;5079080;28;20020;-71
2021/07/20 07:58:33;;;;;;;9.23;6.35;;;17.50;85.70;;;;;;5078939;28;20486;-70
2021/07/20 08:01:02;;;;;;;11.05;6.72;;;17.60;85.50;;;;;;5091776;28;20123;-70
2021/07/20 08:03:30;;;;;;;11.75;7.20;;;17.70;85.30;;;;;;5088090;28;20016;-70
2021/07/20 08:05:57;;;;;;;8.60;6.70;;;17.80;85.10;;;;;;5080369;28;20036;-70
2021/07/20 08:08:24;;;;;;;12.07;7.57;;;17.90;84.90;;;;;;5089432;28;20367;-70
2021/07/20 08:10:50;;;;;;;10.77;7.00;;;17.90;83.70;;;;;;5072351;28;20023;-71
2021/07/20 08:13:17;;;;;;;11.98;7.05;;;18.00;83.50;;;;;;5089846;28;20378;-71
2021/07/20 08:15:46;;;;;;;9.65;6.25;;;18.10;83.40;;;;;;5089709;28;20028;-70
2021/07/20 08:18:12;;;;;;;9.05;6.57;;;18.20;83.00;;;;;;5092651;28;20390;-70
2021/07/20 08:20:38;;;;;;;9.82;7.07;;;18.20;82.90;;;;;;5092803;28;20035;-70
2021/07/20 08:23:04;;;;;;;9.35;6.53;;;18.30;82.40;;;;;;5091394;28;20043;-71
2021/07/20 08:25:34;;;;;;;10.60;7.07;;;18.30;82.00;;;;;;5092498;28;20012;-71
2021/07/20 08:28:08;;;;;;;9.35;6.53;;;18.40;81.70;;;;;;5092425;28;20024;-70
2021/07/20 08:30:42;;;;;;;9.18;6.05;;;18.50;81.40;;;;;;5092595;28;20024;-71
2021/07/20 08:33:12;;;;;;;9.80;6.35;;;18.60;81.20;;;;;;5084902;28;20078;-70
2021/07/20 08:35:40;;;;;;;10.68;7.15;;;18.60;80.80;;;;;;5092496;28;20024;-71
2021/07/20 08:38:13;;;;;;;11.50;7.30;;;18.80;80.60;;;;;;5091151;28;20435;-71
2021/07/20 08:41:09;;;;;;;12.68;7.97;;;18.90;80.20;;;;;;5092004;28;20040;-71
2021/07/20 08:44:09;;;;;;;12.75;7.07;;;18.90;79.50;;;;;;5092218;28;20027;-71
2021/07/20 08:47:14;;;;;;;10.23;6.32;;;19.00;79.00;;;;;;5090881;28;20021;-71
2021/07/20 08:50:09;;;;;;;9.40;6.57;;;19.10;78.60;;;;;;5082385;28;20477;-71
2021/07/20 08:52:42;;;;;;;9.18;6.22;;;19.10;77.60;;;;;;5082228;28;20399;-71
2021/07/20 08:55:13;;;;;;;12.65;7.78;;;19.20;77.50;;;;;;5090339;28;20031;-71
2021/07/20 08:57:44;;;;;;;10.00;6.85;;;19.20;76.70;;;;;;5077825;28;20051;-71
2021/07/20 09:00:18;;;;;;;10.25;6.85;;;19.30;76.80;;;;;;5092226;28;20060;-71
2021/07/20 09:02:46;;;;;;;10.23;6.43;;;19.40;76.30;;;;;;5090541;28;20391;-71
2021/07/20 09:05:12;;;;;;;9.30;6.63;;;19.50;76.00;;;;;;5091489;28;20031;-71
2021/07/20 09:07:59;;;;;;;9.73;6.68;;;19.60;76.00;;;;;;5072667;28;20017;-71
2021/07/20 09:10:31;;;;;;;11.00;6.95;;;19.70;75.20;;;;;;5070499;28;20669;-71
2021/07/20 09:12:56;;;;;;;10.35;6.38;;;19.80;74.70;;;;;;5071487;28;20111;-71
2021/07/20 09:15:25;;;;;;;8.90;5.88;;;19.80;74.60;;;;;;5087159;28;20116;-71
2021/07/20 09:18:01;;;;;;;9.93;6.78;;;19.90;74.40;;;;;;5091774;28;20073;-71
2021/07/20 09:20:34;;;;;;;12.25;7.82;;;20.00;74.00;;;;;;5090746;28;20039;-71
2021/07/20 09:23:14;;;;;;;10.32;6.35;;;20.00;72.70;;;;;;5083697;28;20029;-72
2021/07/20 09:25:43;;;;;;;10.77;6.38;;;20.10;73.00;;;;;;5091222;28;20017;-71
2021/07/20 09:28:18;;;;;;;11.00;6.80;;;20.20;73.30;;;;;;5091350;28;20024;-71
2021/07/20 09:30:46;;;;;;;11.20;6.78;;;20.20;72.70;;;;;;5091650;28;20511;-71
2021/07/20 09:33:30;;;;;;;12.40;8.15;;;20.30;72.60;;;;;;5091852;28;20032;-71
2021/07/20 09:36:10;;;;;;;12.32;7.40;;;20.40;71.10;;;;;;5077677;28;20040;-71
2021/07/20 09:38:39;;;;;;;9.23;6.72;;;20.30;70.40;;;;;;5090740;28;20028;-71
2021/07/20 09:41:24;;;;;;;12.00;6.93;;;20.30;70.70;;;;;;5091732;28;20056;-71
2021/07/20 09:44:01;;;;;;;9.68;6.90;;;20.50;71.10;;;;;;5091675;28;20024;-71
2021/07/20 09:46:40;;;;;;;8.93;6.75;;;20.60;71.00;;;;;;5088440;28;20089;-72
2021/07/20 09:49:16;;;;;;;11.57;8.00;;;20.70;70.60;;;;;;5079364;28;20113;-72
2021/07/20 09:52:01;;;;;;;10.80;7.20;;;20.60;69.10;;;;;;5084611;28;20029;-72
2021/07/20 09:54:38;;;;;;;8.93;6.80;;;20.70;69.70;;;;;;5076357;28;20025;-71
2021/07/20 09:57:21;;;;;;;10.25;6.50;;;20.80;70.00;;;;;;5071144;28;20036;-72
2021/07/20 09:59:59;;;;;;;11.65;7.78;;;21.00;70.00;;;;;;5074895;28;20075;-71
2021/07/20 10:02:44;;;;;;;10.88;7.47;;;21.10;69.60;;;;;;5082721;28;20036;-71
2021/07/20 10:05:27;;;;;;;8.10;6.07;;;21.20;69.30;;;;;;5073088;28;20031;-71
2021/07/20 10:08:03;;;;;;;7.55;5.38;;;21.30;69.10;;;;;;5073449;28;20108;-71
2021/07/20 10:10:44;;;;;;;8.20;5.75;;;21.40;69.20;;;;;;5078736;28;20428;-71
2021/07/20 10:13:23;;;;;;;9.18;5.65;;;21.60;68.80;;;;;;5081832;28;20016;-71
2021/07/20 10:16:09;;;;;;;8.57;5.20;;;21.70;68.70;;;;;;5093482;28;20063;-72
2021/07/20 10:18:45;;;;;;;9.38;6.65;;;21.80;68.60;;;;;;5093728;28;20047;-71
2021/07/20 10:21:16;;;;;;;8.15;5.88;;;21.90;67.40;;;;;;5094459;28;20012;-71
2021/07/20 10:23:47;;;;;;;10.40;7.65;;;22.00;67.80;;;;;;5091920;28;20047;-71
2021/07/20 10:26:24;;;;;;;8.77;6.03;;;22.10;67.30;;;;;;5094925;28;20538;-71
2021/07/20 10:29:20;;;;;;;10.50;7.70;;;22.20;67.20;;;;;;5092718;28;20114;-71
2021/07/20 10:32:27;;;;;;;11.30;7.10;;;22.20;66.80;;;;;;5093578;28;20042;-71
2021/07/20 10:35:00;;;;;;;10.35;7.28;;;22.30;66.40;;;;;;5094394;28;20058;-72
2021/07/20 10:37:29;;;;;;;10.13;6.97;;;22.40;66.50;;;;;;5093150;28;20039;-71
2021/07/20 10:39:59;;;;;;;9.57;6.40;;;22.40;66.00;;;;;;5080208;28;20052;-72
2021/07/20 10:42:53;;;;;;;8.20;5.95;;;22.60;65.80;;;;;;5094551;28;20568;-72
2021/07/20 10:45:21;;;;;;;9.40;6.13;;;22.80;65.70;;;;;;5094574;28;20051;-71
2021/07/20 10:48:13;;;;;;;9.02;6.40;;;22.90;65.50;;;;;;5093321;28;20012;-72
2021/07/20 10:50:41;;;;;;;11.30;7.22;;;23.00;64.90;;;;;;5094400;28;20500;-72
2021/07/20 10:53:20;;;;;;;9.63;6.73;;;23.10;64.10;;;;;;5094340;28;20039;-72
2021/07/20 10:55:56;;;;;;;8.98;6.60;;;23.10;63.40;;;;;;5093110;28;20142;-72
2021/07/20 10:58:43;;;;;;;9.38;6.28;;;23.10;63.10;;;;;;5094397;28;20435;-72
2021/07/20 11:02:05;;;;;;;6.30;4.95;;;23.30;63.30;;;;;;5079838;28;20027;-72
2021/07/20 11:04:53;;;;;;;11.02;7.30;;;23.60;63.30;;;;;;5032215;28;20052;-72
2021/07/20 11:07:50;;;;;;;8.88;6.97;;;23.70;61.30;;;;;;5034002;28;20024;-72
2021/07/20 11:10:23;;;;;;;8.50;6.57;;;23.70;61.10;;;;;;5075084;28;20036;-72
2021/07/20 11:12:56;;;;;;;10.77;7.53;;;23.80;61.40;;;;;;5084914;28;20132;-72
2021/07/20 11:15:25;;;;;;;9.35;6.47;;;23.90;60.70;;;;;;5077223;28;20521;-73
2021/07/20 11:17:51;;;;;;;9.02;6.57;;;24.10;60.90;;;;;;5071631;28;20024;-73
2021/07/20 11:20:20;;;;;;;8.30;6.30;;;24.40;60.60;;;;;;5079389;28;20020;-73
2021/07/20 11:22:46;;;;;;;8.02;5.93;;;24.50;60.30;;;;;;5093737;28;20016;-73
2021/07/20 11:25:13;;;;;;;8.48;6.00;;;24.70;60.40;;;;;;5093746;28;20016;-73
2021/07/20 11:27:42;;;;;;;9.15;6.45;;;24.90;60.20;;;;;;5092386;28;20042;-72
2021/07/20 11:30:13;;;;;;;9.40;6.70;;;25.00;59.50;;;;;;5093676;28;20366;-73
2021/07/20 11:32:43;;;;;;;8.13;6.30;;;25.10;59.00;;;;;;5092165;28;20569;-73
2021/07/20 11:35:20;;;;;;;8.77;6.28;;;25.10;59.00;;;;;;5085323;28;20029;-73
2021/07/20 11:37:51;;;;;;;9.82;7.63;;;25.30;58.70;;;;;;5071394;28;20573;-73
2021/07/20 11:40:22;;;;;;;10.32;7.63;;;25.50;58.20;;;;;;5072439;28;20044;-73
2021/07/20 11:43:04;;;;;;;10.05;8.15;;;25.50;57.00;;;;;;5074646;28;20032;-73
2021/07/20 11:45:40;;;;;;;10.00;7.32;;;25.60;57.20;;;;;;5088949;28;20078;-73
2021/07/20 11:48:10;;;;;;;9.57;6.95;;;25.50;56.60;;;;;;5088733;28;20433;-74
2021/07/20 11:51:00;;;;;;;10.45;7.43;;;25.70;57.00;;;;;;5084105;28;20036;-73
2021/07/20 11:53:29;;;;;;;9.82;6.93;;;25.90;56.50;;;;;;5090679;28;20462;-74
2021/07/20 11:56:04;;;;;;;7.45;5.50;;;26.20;56.50;;;;;;5091161;28;20127;-74
2021/07/20 11:58:48;;;;;;;8.40;6.40;;;26.40;56.60;;;;;;5092927;28;20036;-73
2021/07/20 12:01:51;;;;;;;8.65;7.10;;;26.60;56.60;;;;;;5091539;28;20020;-73
2021/07/20 12:04:40;;;;;;;8.65;6.63;;;26.80;56.30;;;;;;5091769;28;20434;-73
2021/07/20 12:07:25;;;;;;;7.90;6.65;;;27.00;55.80;;;;;;5092956;28;20095;-73
2021/07/20 12:10:10;;;;;;;9.82;7.30;;;26.90;55.20;;;;;;5091614;28;20105;-73
2021/07/20 12:12:45;;;;;;;8.05;6.72;;;26.80;54.30;;;;;;5091809;28;20020;-73
2021/07/20 12:15:15;;;;;;;9.40;7.55;;;26.80;54.20;;;;;;5091290;28;20085;-73
2021/07/20 12:17:43;;;;;;;9.40;7.30;;;26.80;53.40;;;;;;5092408;28;20476;-74
2021/07/20 12:20:10;;;;;;;10.25;6.95;;;26.90;53.90;;;;;;5091263;28;20431;-74
2021/07/20 12:22:38;;;;;;;9.82;8.02;;;27.20;53.40;;;;;;5091485;28;20480;-74
2021/07/20 12:25:06;;;;;;;8.52;7.07;;;27.00;52.00;;;;;;5090582;28;20024;-74
2021/07/20 12:27:33;;;;;;;11.30;7.15;;;26.80;52.90;;;;;;5092695;28;20074;-74
2021/07/20 12:29:59;;;;;;;9.90;8.00;;;26.90;53.40;;;;;;5091900;28;20389;-73
2021/07/20 12:32:30;;;;;;;9.45;7.90;;;27.30;52.70;;;;;;5092572;28;20032;-74
2021/07/20 12:34:57;;;;;;;9.13;7.18;;;27.10;51.30;;;;;;5092659;28;20031;-74
2021/07/20 12:37:24;;;;;;;6.93;6.05;;;27.20;51.90;;;;;;5091318;28;20020;-74
2021/07/20 12:39:50;;;;;;;8.65;6.45;;;27.50;52.00;;;;;;5091180;28;20559;-73
2021/07/20 12:42:16;;;;;;;8.38;6.75;;;27.80;51.60;;;;;;5091411;28;20028;-74
2021/07/20 12:44:42;;;;;;;7.47;6.20;;;27.90;51.60;;;;;;5091321;28;20024;-74
2021/07/20 12:47:11;;;;;;;9.13;7.05;;;28.10;51.50;;;;;;5092428;28;20024;-74
2021/07/20 12:49:37;;;;;;;;;;;28.20;50.50;;;;;;5092686;28;20024;-74
2021/07/20 12:52:04;;;;;;;9.07;7.38;;;28.20;50.70;;;;;;5092446;28;19939;-74
2021/07/20 12:54:40;;;;;;;8.18;6.70;;;28.30;50.90;;;;;;5092425;28;20028;-74
2021/07/20 12:57:08;;;;;;;8.95;6.97;;;28.50;50.60;;;;;;5092427;28;20047;-74
2021/07/20 12:59:44;;;;;;;7.80;6.10;;;28.70;50.10;;;;;;5091160;28;20032;-74
2021/07/20 13:02:14;;;;;;;6.93;6.20;;;29.00;49.80;;;;;;5090920;28;20065;-75
2021/07/20 13:04:42;;;;;;;6.47;5.70;;;29.20;50.00;;;;;;5092393;28;20052;-74